Time;durP1;ratioP1;P1;durP2;ratioP2;P2;SDS_P1;SDS_P2;PMS_P1;PMS_P2;Temp;Humidity;BMP_temperature;BMP_pressure;BME280_temperature;BME280_humidity;BME280_pressure;Samples;Min_cycle;Max_cycle;Signal;HPM_P1;HPM_P2
2023/12/16 00:00:19;;;;;;;25.10;11.85;;;4.60;99.90;;;;;;2602536;54;20305;31
2023/12/16 00:02:53;;;;;;;23.95;11.90;;;4.60;99.90;;;;;;2602618;54;20034;31
2023/12/16 00:05:29;;;;;;;25.33;12.27;;;4.60;99.90;;;;;;2602535;54;21438;31
2023/12/16 00:08:06;;;;;;;24.80;12.05;;;4.70;99.90;;;;;;2602679;54;20231;31
2023/12/16 00:10:41;;;;;;;22.70;12.70;;;4.70;99.90;;;;;;2602725;54;20849;31
2023/12/16 00:13:16;;;;;;;20.90;11.23;;;4.70;99.90;;;;;;2620845;47;20026;31
2023/12/16 00:15:48;;;;;;;28.73;12.15;;;4.70;99.90;;;;;;2620958;47;21154;31
2023/12/16 00:18:24;;;;;;;25.40;12.40;;;4.70;99.90;;;;;;2602595;54;20042;31
2023/12/16 00:20:58;;;;;;;28.17;12.75;;;4.70;99.90;;;;;;2700976;39;21331;31
2023/12/16 00:23:36;;;;;;;22.85;12.27;;;4.70;99.90;;;;;;2602605;54;20052;31
2023/12/16 00:26:10;;;;;;;27.67;11.07;;;4.70;99.90;;;;;;2602749;54;20033;31
2023/12/16 00:28:45;;;;;;;22.27;11.52;;;4.70;99.90;;;;;;2602607;54;20754;31
2023/12/16 00:31:20;;;;;;;31.00;12.45;;;4.70;99.90;;;;;;2602677;54;20890;31
2023/12/16 00:33:55;;;;;;;24.02;10.77;;;4.70;99.90;;;;;;2621270;47;20342;31
2023/12/16 00:36:30;;;;;;;23.77;11.47;;;4.70;99.90;;;;;;2621020;47;20026;31
2023/12/16 00:39:09;;;;;;;23.80;11.40;;;4.70;99.90;;;;;;2621108;47;20884;31
2023/12/16 00:41:46;;;;;;;24.10;11.35;;;4.70;99.90;;;;;;2602494;54;20812;31
2023/12/16 00:44:21;;;;;;;25.73;12.80;;;4.70;99.90;;;;;;2602555;54;20846;31
2023/12/16 00:46:56;;;;;;;22.60;11.00;;;4.70;99.90;;;;;;2621369;47;20097;31
2023/12/16 00:49:30;;;;;;;22.30;11.02;;;4.70;99.90;;;;;;2602624;54;20053;31
2023/12/16 00:52:06;;;;;;;22.90;10.45;;;4.80;99.90;;;;;;2602650;54;20481;31
2023/12/16 00:54:43;;;;;;;20.85;10.98;;;4.70;99.90;;;;;;2602421;54;20883;31
2023/12/16 00:57:17;;;;;;;19.60;11.85;;;4.80;99.90;;;;;;2603293;54;20031;31
2023/12/16 00:59:51;;;;;;;21.40;10.65;;;4.80;99.90;;;;;;2603425;54;20127;31
2023/12/16 01:02:26;;;;;;;20.83;10.48;;;4.80;99.90;;;;;;2622001;46;20030;31
2023/12/16 01:05:01;;;;;;;26.63;11.73;;;4.80;99.90;;;;;;2603136;54;20891;31
2023/12/16 01:07:36;;;;;;;19.10;11.20;;;4.80;99.90;;;;;;2603442;54;20064;31
2023/12/16 01:10:14;;;;;;;24.73;10.63;;;4.80;99.90;;;;;;2603135;54;20119;31
2023/12/16 01:12:48;;;;;;;23.35;10.85;;;4.80;99.90;;;;;;2603199;54;20259;31
2023/12/16 01:15:23;;;;;;;21.30;9.23;;;4.80;99.90;;;;;;2621788;46;20026;31
2023/12/16 01:17:58;;;;;;;21.52;9.73;;;4.80;99.90;;;;;;2603317;54;20815;31
2023/12/16 01:20:33;;;;;;;16.20;9.30;;;4.80;99.90;;;;;;2603111;54;20802;31
2023/12/16 01:23:08;;;;;;;24.83;10.20;;;4.80;99.90;;;;;;2603368;54;20030;31
2023/12/16 01:25:46;;;;;;;24.93;9.97;;;4.90;99.90;;;;;;2621595;46;20037;31
2023/12/16 01:28:20;;;;;;;20.67;10.67;;;4.90;99.90;;;;;;2603367;54;20910;31
2023/12/16 01:30:56;;;;;;;20.83;10.32;;;4.90;99.90;;;;;;2621434;46;20843;31
2023/12/16 01:33:30;;;;;;;19.57;9.27;;;4.90;99.90;;;;;;2621777;46;20037;31
2023/12/16 01:36:08;;;;;;;26.50;9.83;;;4.90;99.90;;;;;;2603063;54;20241;31
2023/12/16 01:38:42;;;;;;;22.80;10.43;;;5.00;99.90;;;;;;2603499;54;20246;31
2023/12/16 01:41:20;;;;;;;20.38;8.77;;;4.90;99.90;;;;;;2603277;54;20845;31
2023/12/16 01:43:54;;;;;;;16.98;8.93;;;4.90;99.90;;;;;;2602956;54;20038;31
2023/12/16 01:46:29;;;;;;;24.10;10.05;;;4.90;99.90;;;;;;2701636;39;21424;31
2023/12/16 01:49:07;;;;;;;17.10;8.15;;;5.00;99.90;;;;;;2603104;54;20084;31
2023/12/16 01:51:41;;;;;;;21.90;9.18;;;5.10;99.90;;;;;;2621550;46;20120;31
2023/12/16 01:54:17;;;;;;;23.20;9.23;;;5.10;99.90;;;;;;2603008;54;21007;31
2023/12/16 01:56:59;;;;;;;19.23;8.77;;;5.10;99.90;;;;;;2602961;54;20099;31
2023/12/16 01:59:36;;;;;;;17.70;8.75;;;5.00;99.90;;;;;;2602986;54;20762;31
2023/12/16 02:02:10;;;;;;;19.75;8.30;;;5.10;99.90;;;;;;2621563;46;20038;31
2023/12/16 02:04:46;;;;;;;16.27;7.55;;;5.10;99.90;;;;;;2603160;54;20761;31
2023/12/16 02:07:21;;;;;;;19.67;8.43;;;5.10;99.90;;;;;;2602836;54;20102;31
2023/12/16 02:09:55;;;;;;;18.35;8.77;;;5.10;99.90;;;;;;2602895;54;20882;31
2023/12/16 02:12:35;;;;;;;20.55;8.10;;;5.10;99.90;;;;;;2603096;54;20030;31
2023/12/16 02:15:10;;;;;;;18.02;8.25;;;5.10;99.90;;;;;;2602996;54;20034;31
2023/12/16 02:17:46;;;;;;;20.07;8.77;;;5.00;99.90;;;;;;2602978;54;20061;31
2023/12/16 02:20:22;;;;;;;20.75;7.70;;;5.10;99.90;;;;;;2602711;54;20031;31
2023/12/16 02:22:57;;;;;;;14.40;7.10;;;5.00;99.90;;;;;;2602866;54;20057;31
2023/12/16 02:25:34;;;;;;;22.40;8.60;;;5.00;99.90;;;;;;2602955;54;20806;31
2023/12/16 02:28:08;;;;;;;17.73;7.45;;;5.00;99.90;;;;;;2602891;54;21381;31
2023/12/16 02:30:43;;;;;;;16.40;9.43;;;5.00;99.90;;;;;;2603108;54;20802;31
2023/12/16 02:33:19;;;;;;;18.67;9.00;;;5.00;99.90;;;;;;2621145;46;20023;31
2023/12/16 02:36:03;;;;;;;19.05;8.00;;;5.00;99.90;;;;;;2602795;54;20834;31
2023/12/16 02:38:42;;;;;;;20.75;8.02;;;5.00;99.90;;;;;;2603030;54;20884;31
2023/12/16 02:41:25;;;;;;;19.10;7.93;;;5.00;99.90;;;;;;2602976;54;20026;31
2023/12/16 02:44:07;;;;;;;15.85;7.07;;;5.00;99.90;;;;;;2603008;54;20152;31
2023/12/16 02:46:50;;;;;;;17.50;7.23;;;5.00;99.90;;;;;;2602923;54;20117;31
2023/12/16 02:49:29;;;;;;;20.05;9.02;;;5.00;99.90;;;;;;2621483;46;20809;31
2023/12/16 02:54:46;;;;;;;19.25;9.30;;;5.00;99.90;;;;;;2602862;54;20038;31
2023/12/16 02:57:23;;;;;;;21.83;8.43;;;5.00;99.90;;;;;;2602927;54;20889;31
2023/12/16 03:00:00;;;;;;;20.27;8.98;;;5.00;99.90;;;;;;2603146;54;20056;31
2023/12/16 03:02:38;;;;;;;23.07;10.00;;;5.00;99.90;;;;;;2602719;54;20077;31
2023/12/16 03:05:15;;;;;;;19.20;10.05;;;5.00;99.90;;;;;;2603101;54;20257;31
2023/12/16 03:07:49;;;;;;;17.80;7.95;;;5.00;99.90;;;;;;2602606;54;20034;31
2023/12/16 03:10:25;;;;;;;19.98;8.60;;;5.00;99.90;;;;;;2602708;54;20075;31
2023/12/16 03:13:02;;;;;;;26.38;10.18;;;5.00;99.90;;;;;;2620883;46;20044;31
2023/12/16 03:15:39;;;;;;;19.55;9.05;;;5.00;99.90;;;;;;2602877;54;20031;31
2023/12/16 03:18:25;;;;;;;23.02;10.30;;;5.00;99.90;;;;;;2700819;39;21370;31
2023/12/16 03:21:00;;;;;;;17.30;8.80;;;5.00;99.90;;;;;;2602665;54;20853;31
2023/12/16 03:50:34;;;;;;;22.20;9.37;;;5.10;99.90;;;;;;2700620;39;20739;31
2023/12/16 03:53:08;;;;;;;24.80;10.13;;;5.10;99.90;;;;;;2602720;54;20026;31
2023/12/16 03:55:44;;;;;;;22.50;9.87;;;5.10;99.90;;;;;;2621135;46;20037;31
2023/12/16 03:58:16;;;;;;;29.60;9.90;;;5.10;99.90;;;;;;2602642;54;21082;31
2023/12/16 04:06:58;;;;;;;27.35;11.15;;;5.10;99.90;;;;;;2602652;54;20022;31
2023/12/16 04:09:35;;;;;;;26.15;9.45;;;5.20;99.90;;;;;;2602665;54;20026;31
2023/12/16 04:12:11;;;;;;;24.30;10.40;;;5.20;99.90;;;;;;2621039;46;20063;31
2023/12/16 04:14:49;;;;;;;21.40;9.43;;;5.20;99.90;;;;;;2602498;54;20053;31
2023/12/16 04:17:24;;;;;;;22.23;10.07;;;5.20;99.90;;;;;;2602626;54;20769;31
2023/12/16 04:23:05;;;;;;;18.20;8.38;;;5.20;99.90;;;;;;2602446;54;20894;31
2023/12/16 04:25:42;;;;;;;23.35;9.98;;;5.20;99.90;;;;;;2621110;47;20030;31
2023/12/16 04:28:23;;;;;;;22.48;9.68;;;5.20;99.90;;;;;;2621227;47;20034;31
2023/12/16 04:36:58;;;;;;;17.85;8.90;;;5.20;99.90;;;;;;2602935;54;20027;31
2023/12/16 04:39:46;;;;;;;19.00;7.90;;;5.30;99.90;;;;;;2621226;46;20031;31
2023/12/16 04:45:12;;;;;;;17.90;7.97;;;5.30;99.90;;;;;;2603113;54;20049;31
2023/12/16 04:47:49;;;;;;;22.08;10.00;;;5.30;99.90;;;;;;2603540;54;20902;31
2023/12/16 04:50:24;;;;;;;17.50;8.40;;;5.30;99.90;;;;;;2621521;46;20026;31
2023/12/16 04:53:02;;;;;;;25.40;8.60;;;5.30;99.90;;;;;;2603483;54;20843;31
2023/12/16 04:55:39;;;;;;;15.05;7.07;;;5.30;99.90;;;;;;2603388;54;20035;31
2023/12/16 04:58:14;;;;;;;24.63;9.10;;;5.30;99.90;;;;;;2603252;54;20872;31
2023/12/16 05:00:51;;;;;;;13.10;7.60;;;5.30;99.90;;;;;;2603118;54;20057;31
2023/12/16 05:03:38;;;;;;;17.47;8.83;;;5.30;99.90;;;;;;2603082;54;20869;31
2023/12/16 05:06:18;;;;;;;20.15;10.77;;;5.30;99.90;;;;;;2621610;46;20059;31
2023/12/16 05:11:59;;;;;;;17.48;8.23;;;5.40;99.90;;;;;;2603070;54;20940;31
2023/12/16 05:17:10;;;;;;;17.73;7.53;;;5.30;99.90;;;;;;2701643;39;20484;31
2023/12/16 05:19:47;;;;;;;20.02;8.07;;;5.30;99.90;;;;;;2603075;54;20766;31
2023/12/16 05:22:21;;;;;;;16.60;7.82;;;5.30;99.90;;;;;;2603095;54;20023;31
2023/12/16 05:24:57;;;;;;;15.10;7.57;;;5.30;99.90;;;;;;2602669;54;20034;31
2023/12/16 05:27:31;;;;;;;15.50;7.97;;;5.40;99.90;;;;;;2603306;54;20887;31
2023/12/16 05:30:08;;;;;;;18.60;9.20;;;5.40;99.90;;;;;;2603334;54;20052;31
2023/12/16 05:32:46;;;;;;;21.05;8.10;;;5.30;99.90;;;;;;2603040;54;20030;31
2023/12/16 05:35:21;;;;;;;20.83;8.73;;;5.40;99.90;;;;;;2603256;54;20030;31
2023/12/16 05:37:59;;;;;;;18.88;9.45;;;5.40;99.90;;;;;;2603181;54;20254;31
2023/12/16 05:40:34;;;;;;;17.00;8.65;;;5.40;99.90;;;;;;2603208;54;20026;31
2023/12/16 05:43:10;;;;;;;13.25;7.90;;;5.40;99.90;;;;;;2603167;54;20927;31
2023/12/16 05:45:46;;;;;;;24.80;9.93;;;5.40;99.90;;;;;;2621324;46;20046;31
2023/12/16 05:48:23;;;;;;;17.20;9.45;;;5.40;99.90;;;;;;2603050;54;20131;31
2023/12/16 05:50:58;;;;;;;21.30;9.95;;;5.40;99.90;;;;;;2603189;54;20030;31
2023/12/16 05:53:32;;;;;;;18.95;8.35;;;5.40;99.90;;;;;;2602957;54;20030;31
2023/12/16 05:56:08;;;;;;;16.73;7.95;;;5.40;99.90;;;;;;2603152;54;20062;31
2023/12/16 05:58:42;;;;;;;21.85;9.05;;;5.40;99.90;;;;;;2602948;54;20026;31
2023/12/16 06:01:22;;;;;;;20.00;9.65;;;5.40;99.90;;;;;;2603028;54;20116;31
2023/12/16 06:03:59;;;;;;;21.43;10.40;;;5.40;99.90;;;;;;2621180;46;20955;31
2023/12/16 06:06:34;;;;;;;24.60;9.55;;;5.40;99.90;;;;;;2621531;46;20242;31
2023/12/16 06:09:10;;;;;;;21.67;9.35;;;5.40;99.90;;;;;;2603144;54;21464;31
2023/12/16 06:11:45;;;;;;;18.73;9.10;;;5.40;99.90;;;;;;2603049;54;21453;31
2023/12/16 06:14:20;;;;;;;20.70;9.48;;;5.50;99.90;;;;;;2621420;46;20037;31
2023/12/16 06:16:54;;;;;;;19.83;9.57;;;5.50;99.90;;;;;;2602989;54;20023;31
2023/12/16 06:19:32;;;;;;;20.00;9.30;;;5.50;99.90;;;;;;2603021;54;19960;31
2023/12/16 06:22:09;;;;;;;19.60;8.95;;;5.50;99.90;;;;;;2602768;54;20040;31
2023/12/16 06:24:43;;;;;;;19.17;9.05;;;5.50;99.90;;;;;;2602926;54;20030;31
2023/12/16 06:27:18;;;;;;;20.47;8.80;;;5.50;99.90;;;;;;2602841;54;20640;31
2023/12/16 06:29:53;;;;;;;20.70;10.00;;;5.50;99.90;;;;;;2621461;46;20254;31
2023/12/16 06:32:28;;;;;;;18.70;9.73;;;5.50;99.90;;;;;;2602758;54;20034;31
2023/12/16 06:35:08;;;;;;;17.73;9.07;;;5.50;99.90;;;;;;2602939;54;20040;31
2023/12/16 06:40:13;;;;;;;19.33;10.45;;;5.50;99.90;;;;;;2602562;54;20033;31
2023/12/16 06:42:47;;;;;;;20.73;10.23;;;5.50;99.90;;;;;;2621459;46;20029;31
2023/12/16 06:45:23;;;;;;;18.27;9.03;;;5.50;99.90;;;;;;2701581;39;20373;31
2023/12/16 06:47:58;;;;;;;18.05;9.43;;;5.50;99.90;;;;;;2602767;54;21085;31
2023/12/16 06:50:42;;;;;;;19.03;9.13;;;5.50;99.90;;;;;;2602928;54;20842;31
2023/12/16 06:59:20;;;;;;;20.45;9.73;;;5.50;99.90;;;;;;2700851;39;20401;31
2023/12/16 07:04:51;;;;;;;20.70;8.75;;;5.60;99.90;;;;;;2602896;54;20026;31
2023/12/16 07:07:26;;;;;;;19.07;9.33;;;5.60;99.90;;;;;;2602879;54;20042;31
2023/12/16 07:10:04;;;;;;;20.90;10.48;;;5.60;99.90;;;;;;2621132;46;21176;31
2023/12/16 07:12:47;;;;;;;25.00;10.77;;;5.60;99.90;;;;;;2772679;31;20535;31
2023/12/16 07:15:25;;;;;;;29.20;10.40;;;5.60;99.90;;;;;;2621242;46;20108;31
2023/12/16 07:18:02;;;;;;;21.00;9.88;;;5.60;99.90;;;;;;2719651;39;20451;31
2023/12/16 07:20:39;;;;;;;21.60;9.90;;;5.60;99.90;;;;;;2602886;54;20791;31
2023/12/16 07:37:54;;;;;;;24.90;11.35;;;5.70;99.90;;;;;;2610999;54;20019;31
2023/12/16 07:40:34;;;;;;;21.50;11.18;;;5.70;99.90;;;;;;2602600;54;20190;31
2023/12/16 07:43:10;;;;;;;23.15;10.07;;;5.70;99.90;;;;;;2621087;46;20037;31
2023/12/16 07:45:45;;;;;;;;;;;5.70;99.90;;;;;;2603191;54;20931;31
2023/12/16 07:48:21;;;;;;;23.02;10.18;;;5.70;99.90;;;;;;2621218;46;19934;31
2023/12/16 09:12:30;;;;;;;25.80;10.90;;;6.20;99.90;;;;;;2601731;54;20038;31
2023/12/16 09:15:12;;;;;;;29.40;10.70;;;6.20;99.90;;;;;;2602365;54;20027;31
2023/12/16 09:17:50;;;;;;;29.05;12.20;;;6.20;99.90;;;;;;2621128;47;20994;31
2023/12/16 09:30:04;;;;;;;30.88;10.75;;;6.30;99.90;;;;;;2602147;54;20038;31
2023/12/16 09:44:58;;;;;;;23.10;10.57;;;6.30;99.90;;;;;;2602062;54;20026;31
2023/12/16 09:50:43;;;;;;;22.63;9.45;;;6.40;99.90;;;;;;2602590;54;20040;31
2023/12/16 09:53:21;;;;;;;28.75;11.25;;;6.40;99.90;;;;;;2603314;54;20849;31
2023/12/16 09:55:57;;;;;;;24.70;11.07;;;6.40;99.90;;;;;;2603070;54;20905;31
2023/12/16 09:58:35;;;;;;;27.40;10.65;;;6.40;99.90;;;;;;2603086;54;20789;31
2023/12/16 10:01:14;;;;;;;21.23;9.43;;;6.40;99.90;;;;;;2602984;54;20038;31
2023/12/16 10:03:51;;;;;;;25.98;8.55;;;6.40;99.90;;;;;;2621710;46;20887;31
2023/12/16 10:06:27;;;;;;;26.95;8.68;;;6.40;99.90;;;;;;2602916;54;20038;31
2023/12/16 10:09:04;;;;;;;20.30;8.82;;;6.50;99.90;;;;;;2602989;54;20067;31
2023/12/16 10:11:42;;;;;;;18.90;9.00;;;6.50;99.90;;;;;;2714764;39;21130;31
2023/12/16 10:14:17;;;;;;;24.88;8.77;;;6.50;99.90;;;;;;2621368;46;20243;31
2023/12/16 10:17:03;;;;;;;19.60;8.77;;;6.50;99.90;;;;;;2621140;46;20026;31
2023/12/16 10:22:08;;;;;;;18.95;7.72;;;6.60;99.90;;;;;;2621373;46;20049;31
2023/12/16 10:24:48;;;;;;;21.20;8.60;;;6.60;99.90;;;;;;2603030;54;20089;31
2023/12/16 10:27:24;;;;;;;16.13;7.90;;;6.70;99.90;;;;;;2602825;54;20032;31
2023/12/16 10:30:03;;;;;;;24.58;7.85;;;6.70;99.90;;;;;;2602980;54;20894;31
2023/12/16 10:35:30;;;;;;;18.60;7.45;;;6.80;99.90;;;;;;2602987;54;20048;31
2023/12/16 10:38:10;;;;;;;18.35;7.40;;;6.90;99.90;;;;;;2621384;46;20073;31
2023/12/16 10:40:50;;;;;;;19.00;6.95;;;6.90;99.90;;;;;;2603014;54;20883;31
2023/12/16 10:43:25;;;;;;;21.27;6.93;;;6.90;99.90;;;;;;2603031;54;20119;31
2023/12/16 10:46:04;;;;;;;15.85;6.20;;;7.00;99.90;;;;;;2602769;54;20082;31
2023/12/16 12:21:25;;;;;;;10.65;3.65;;;7.70;99.90;;;;;;2609892;54;20309;31
2023/12/16 12:24:01;;;;;;;12.95;3.92;;;7.70;99.90;;;;;;2602671;54;20496;31
2023/12/16 12:26:37;;;;;;;9.85;4.80;;;7.70;99.90;;;;;;2620775;47;21849;31
2023/12/16 12:29:19;;;;;;;11.48;3.40;;;7.70;99.90;;;;;;2602668;54;20029;31
2023/12/16 12:31:57;;;;;;;7.85;3.60;;;8.10;99.90;;;;;;2602496;54;20025;31
2023/12/16 12:34:33;;;;;;;9.70;4.38;;;8.10;99.90;;;;;;2602288;54;20047;31
2023/12/16 12:37:11;;;;;;;13.35;4.55;;;8.10;99.90;;;;;;2620817;47;20850;31
2023/12/16 12:39:46;;;;;;;7.57;3.22;;;8.00;99.90;;;;;;2620718;47;20272;31
2023/12/16 12:42:21;;;;;;;9.65;3.95;;;7.90;99.90;;;;;;2700976;39;20512;31
2023/12/16 12:44:56;;;;;;;9.07;3.67;;;7.90;99.90;;;;;;2602268;54;20269;31
2023/12/16 12:47:32;;;;;;;12.60;4.30;;;7.80;99.90;;;;;;2701104;39;20544;31
2023/12/16 12:50:21;;;;;;;12.45;4.28;;;7.90;99.90;;;;;;2602559;54;20092;31
2023/12/16 12:53:02;;;;;;;8.25;4.53;;;8.00;99.90;;;;;;2603313;54;20042;31
2023/12/16 13:18:30;;;;;;;13.38;3.35;;;7.70;99.90;;;;;;2603162;54;20234;31
2023/12/16 13:21:06;;;;;;;9.82;4.03;;;7.90;99.90;;;;;;2701483;39;21463;31
2023/12/16 13:23:41;;;;;;;;;;;7.90;99.90;;;;;;2603214;54;20099;31
2023/12/16 13:26:19;;;;;;;14.90;3.28;;;7.90;99.90;;;;;;2603235;54;19935;31
2023/12/16 13:28:54;;;;;;;7.03;2.83;;;7.80;99.90;;;;;;2603174;54;20103;31
2023/12/16 13:31:29;;;;;;;9.50;3.95;;;7.70;99.90;;;;;;2603199;54;20320;31
2023/12/16 13:34:07;;;;;;;8.50;3.97;;;7.70;99.90;;;;;;2621736;46;20992;31
2023/12/16 13:36:46;;;;;;;8.65;3.17;;;7.70;99.90;;;;;;2603038;54;20030;31
2023/12/16 13:39:24;;;;;;;10.97;3.93;;;7.70;99.90;;;;;;2602955;54;20027;31
2023/12/16 13:41:59;;;;;;;12.15;4.65;;;7.70;99.90;;;;;;2621451;46;20594;31
2023/12/16 13:44:34;;;;;;;21.02;7.88;;;7.70;99.90;;;;;;2603107;54;20029;31
2023/12/16 13:47:09;;;;;;;15.35;6.30;;;7.60;99.90;;;;;;2621431;46;20916;31
2023/12/16 13:49:47;;;;;;;16.35;7.00;;;7.60;99.90;;;;;;2603063;54;20022;31
2023/12/16 13:52:22;;;;;;;16.15;6.00;;;7.70;99.90;;;;;;2603070;54;20994;31
2023/12/16 13:54:58;;;;;;;13.05;4.75;;;7.70;99.90;;;;;;2621464;46;20899;31
2023/12/16 13:57:36;;;;;;;15.65;5.65;;;7.60;99.90;;;;;;2602840;54;20031;31
2023/12/16 14:00:13;;;;;;;16.05;5.20;;;7.70;99.90;;;;;;2603031;54;20925;31
2023/12/16 14:02:48;;;;;;;12.35;5.05;;;7.70;99.90;;;;;;2621599;46;20071;31
2023/12/16 14:05:26;;;;;;;10.90;4.70;;;7.60;99.90;;;;;;2602835;54;20093;31
2023/12/16 14:08:01;;;;;;;11.70;5.50;;;7.70;99.90;;;;;;2621611;46;20776;31
2023/12/16 14:10:35;;;;;;;13.25;5.47;;;7.60;99.90;;;;;;2701227;39;21559;31
2023/12/16 14:13:10;;;;;;;21.90;6.30;;;7.60;99.90;;;;;;2602934;54;20049;31
2023/12/16 14:15:46;;;;;;;23.58;6.70;;;7.60;99.90;;;;;;2602843;54;20766;31
2023/12/16 14:18:21;;;;;;;12.70;4.83;;;7.60;99.90;;;;;;2602813;54;20026;31
2023/12/16 14:21:00;;;;;;;14.00;5.10;;;7.60;99.90;;;;;;2602964;54;20781;31
2023/12/16 14:23:36;;;;;;;15.68;5.20;;;7.60;99.90;;;;;;2602700;54;20566;31
2023/12/16 14:26:11;;;;;;;13.32;4.70;;;7.50;99.90;;;;;;2621401;46;20873;31
2023/12/16 14:28:46;;;;;;;11.55;4.75;;;7.50;99.90;;;;;;2602693;54;20076;31
2023/12/16 14:31:21;;;;;;;16.50;5.05;;;7.50;99.90;;;;;;2602951;54;20880;31
2023/12/16 14:33:58;;;;;;;13.70;4.72;;;7.50;99.90;;;;;;2620714;46;20933;31
2023/12/16 14:36:35;;;;;;;14.65;5.15;;;7.40;99.90;;;;;;2603098;54;20030;31
2023/12/16 14:39:13;;;;;;;18.50;4.80;;;7.40;99.90;;;;;;2772763;31;20503;31
2023/12/16 14:41:50;;;;;;;16.67;5.93;;;7.40;99.90;;;;;;2621526;46;20843;31
2023/12/16 14:44:33;;;;;;;11.43;4.57;;;7.40;99.90;;;;;;2602666;54;21470;31
2023/12/16 14:47:08;;;;;;;20.55;7.10;;;7.40;99.90;;;;;;2602819;54;20246;31
2023/12/16 14:49:47;;;;;;;18.10;5.30;;;7.30;99.90;;;;;;2602742;54;20100;31
2023/12/16 14:52:24;;;;;;;15.30;5.97;;;7.30;99.90;;;;;;2701203;39;21655;31
2023/12/16 14:55:01;;;;;;;19.70;8.10;;;7.20;99.90;;;;;;2602822;54;20034;31
2023/12/16 14:57:39;;;;;;;17.10;6.80;;;7.20;99.90;;;;;;2603042;54;20022;31
2023/12/16 15:00:17;;;;;;;16.27;5.63;;;7.10;99.90;;;;;;2621305;46;20247;31
2023/12/16 15:02:49;;;;;;;15.25;5.70;;;7.00;99.90;;;;;;2621258;46;21136;31
2023/12/16 15:05:25;;;;;;;12.88;5.47;;;7.00;99.90;;;;;;2602112;54;20915;31
2023/12/16 15:11:05;;;;;;;16.17;7.10;;;7.00;99.90;;;;;;2700977;39;20399;31
2023/12/16 15:13:39;;;;;;;22.73;5.63;;;7.20;99.90;;;;;;2621119;46;21185;31
2023/12/16 15:16:14;;;;;;;16.60;5.95;;;7.20;99.90;;;;;;2602814;54;20053;31
2023/12/16 15:18:52;;;;;;;20.73;6.55;;;7.20;99.90;;;;;;2602692;54;20023;31
2023/12/16 15:21:27;;;;;;;12.82;6.47;;;7.10;99.90;;;;;;2621378;46;20108;31
2023/12/16 15:24:06;;;;;;;13.03;5.73;;;7.10;99.90;;;;;;2701212;39;21278;31
2023/12/16 15:47:05;;;;;;;15.35;5.40;;;6.90;99.90;;;;;;2646023;53;21203;31
2023/12/16 15:49:53;;;;;;;14.45;5.80;;;6.90;99.90;;;;;;2607028;54;21086;31
2023/12/16 15:52:28;;;;;;;12.87;5.27;;;6.90;99.90;;;;;;2607140;54;20018;31
2023/12/16 15:55:08;;;;;;;11.05;5.40;;;6.80;99.90;;;;;;2606933;54;20234;31
2023/12/16 15:57:42;;;;;;;13.05;5.57;;;6.80;99.90;;;;;;2704862;38;21461;31
2023/12/16 16:00:18;;;;;;;12.50;5.32;;;6.80;99.90;;;;;;2606746;54;20030;31
2023/12/16 16:02:57;;;;;;;22.25;6.85;;;6.70;99.90;;;;;;2606990;54;20892;31
2023/12/16 16:05:43;;;;;;;21.15;6.45;;;6.60;99.90;;;;;;2607105;54;20765;31
2023/12/16 16:14:22;;;;;;;12.32;5.68;;;6.40;99.90;;;;;;2606656;54;20813;31
2023/12/16 16:16:57;;;;;;;14.40;5.70;;;6.40;99.90;;;;;;2625592;46;20850;31
2023/12/16 16:19:39;;;;;;;15.32;6.30;;;6.30;99.90;;;;;;2606233;54;20040;31
2023/12/16 16:22:15;;;;;;;14.40;5.88;;;6.30;99.90;;;;;;2606746;54;20092;31
2023/12/16 16:28:04;;;;;;;14.27;6.68;;;6.30;99.90;;;;;;2606892;54;20026;31
2023/12/16 16:30:41;;;;;;;15.95;7.25;;;6.30;99.90;;;;;;2606975;54;20030;31
2023/12/16 16:36:04;;;;;;;13.90;5.53;;;6.30;99.90;;;;;;2606664;54;20026;31
2023/12/16 16:38:40;;;;;;;14.43;5.13;;;6.30;99.90;;;;;;2606899;54;20022;31
2023/12/16 16:41:16;;;;;;;17.05;5.50;;;6.20;99.90;;;;;;2606635;54;20237;31
2023/12/16 16:43:52;;;;;;;16.30;5.18;;;6.20;99.90;;;;;;2606700;54;20860;31
2023/12/16 16:46:29;;;;;;;17.50;5.93;;;6.20;99.90;;;;;;2606740;54;20762;31
2023/12/16 16:49:08;;;;;;;17.20;6.60;;;6.20;99.90;;;;;;2607089;54;20022;31
2023/12/16 16:51:53;;;;;;;17.00;6.55;;;6.20;99.90;;;;;;2606591;54;20888;31
2023/12/16 16:54:30;;;;;;;16.00;6.85;;;6.10;99.90;;;;;;2606885;54;20033;31
2023/12/16 16:57:05;;;;;;;13.23;4.82;;;6.10;99.90;;;;;;2604901;54;21329;31
2023/12/16 16:59:42;;;;;;;18.50;7.57;;;6.10;99.90;;;;;;2603180;54;20034;31
2023/12/16 17:02:26;;;;;;;18.73;6.80;;;6.10;99.90;;;;;;2603093;54;20094;31
2023/12/16 17:59:41;;;;;;;14.10;5.85;;;6.30;99.90;;;;;;2602830;54;20033;31
2023/12/16 18:05:15;;;;;;;13.55;5.65;;;6.30;99.90;;;;;;2621257;46;20778;31
2023/12/16 18:20:23;;;;;;;13.18;5.13;;;6.30;99.90;;;;;;2602720;54;20029;31
2023/12/16 18:25:53;;;;;;;12.40;5.65;;;6.30;99.90;;;;;;2602164;54;20030;31
2023/12/16 18:31:39;;;;;;;11.23;5.10;;;6.30;99.90;;;;;;2602585;54;20913;31
2023/12/16 18:34:17;;;;;;;11.52;5.82;;;6.20;99.90;;;;;;2602984;54;20277;31
2023/12/16 18:36:54;;;;;;;12.27;5.97;;;6.20;99.90;;;;;;2621121;46;20030;31
2023/12/16 18:39:28;;;;;;;13.35;5.72;;;6.30;99.90;;;;;;2602794;54;20085;31
2023/12/16 18:42:04;;;;;;;19.17;7.22;;;6.30;99.90;;;;;;2602911;54;20865;31
2023/12/16 18:44:41;;;;;;;14.15;6.28;;;6.30;99.90;;;;;;2621412;46;20081;31
2023/12/16 18:47:15;;;;;;;15.88;7.47;;;6.30;99.90;;;;;;2602868;54;20041;31
2023/12/16 18:49:54;;;;;;;24.08;7.07;;;6.30;99.90;;;;;;2621305;46;20891;31
2023/12/16 18:55:36;;;;;;;14.87;5.87;;;6.30;99.90;;;;;;2602648;54;20888;31
2023/12/16 19:07:34;;;;;;;19.30;6.40;;;6.40;99.90;;;;;;2602847;54;20050;31
2023/12/16 19:10:13;;;;;;;16.35;6.78;;;6.40;99.90;;;;;;2602598;54;20033;31
2023/12/16 19:12:50;;;;;;;15.32;6.30;;;6.40;99.90;;;;;;2601961;54;20884;31
2023/12/16 19:21:21;;;;;;;18.45;7.15;;;6.40;99.90;;;;;;2621348;46;20026;31
2023/12/16 19:35:12;;;;;;;13.13;6.55;;;6.40;99.90;;;;;;2602029;54;20030;31
2023/12/16 19:37:49;;;;;;;15.75;6.55;;;6.40;99.90;;;;;;2602428;54;20086;31
2023/12/16 19:40:26;;;;;;;15.30;7.00;;;6.40;99.90;;;;;;2621033;46;20048;31
2023/12/16 19:51:31;;;;;;;21.50;8.65;;;6.40;99.90;;;;;;2602556;54;20031;31
2023/12/16 19:54:09;;;;;;;20.98;9.25;;;6.40;99.90;;;;;;2602555;54;20057;31
2023/12/16 19:56:47;;;;;;;18.65;7.75;;;6.40;99.90;;;;;;2602546;54;20925;31
2023/12/16 19:59:26;;;;;;;22.17;8.73;;;6.40;99.90;;;;;;2602682;54;20042;31
2023/12/16 20:02:03;;;;;;;18.35;8.57;;;6.40;99.90;;;;;;2602431;54;21066;31
2023/12/16 20:07:24;;;;;;;24.05;9.48;;;6.40;99.90;;;;;;2602457;54;20873;31
2023/12/16 20:13:14;;;;;;;18.65;8.93;;;6.40;99.90;;;;;;2602335;54;20030;31
2023/12/16 20:15:51;;;;;;;20.33;9.93;;;6.50;99.90;;;;;;2602539;54;20873;31
2023/12/16 20:18:30;;;;;;;24.98;9.73;;;6.60;99.90;;;;;;2602514;54;20060;31
2023/12/16 20:27:10;;;;;;;22.70;9.38;;;6.70;99.90;;;;;;2602271;54;20030;31
2023/12/16 20:48:35;;;;;;;18.25;8.13;;;6.50;99.90;;;;;;2612537;54;20026;31
2023/12/16 20:54:21;;;;;;;16.20;8.43;;;6.50;99.90;;;;;;2603385;54;20030;31
2023/12/16 20:57:08;;;;;;;17.20;8.88;;;6.50;99.90;;;;;;2603230;54;20089;31
2023/12/16 21:12:39;;;;;;;20.10;7.70;;;6.50;99.90;;;;;;2611367;54;21139;31
2023/12/16 21:27:57;;;;;;;17.75;8.13;;;6.50;99.90;;;;;;2602202;54;20785;31
2023/12/16 21:39:27;;;;;;;16.20;7.95;;;6.40;99.90;;;;;;2604715;46;20075;31
2023/12/16 21:48:10;;;;;;;17.00;8.02;;;6.50;99.90;;;;;;2602677;54;20905;31
2023/12/16 21:50:45;;;;;;;18.40;7.07;;;6.50;99.90;;;;;;2603170;54;20887;31
2023/12/16 21:53:20;;;;;;;20.70;8.85;;;6.50;99.90;;;;;;2603031;54;20809;31
2023/12/16 21:55:56;;;;;;;21.17;7.47;;;6.60;99.90;;;;;;2602833;54;20031;31
2023/12/16 21:58:31;;;;;;;17.50;8.30;;;6.60;99.90;;;;;;2603014;54;20093;31
2023/12/16 22:01:08;;;;;;;25.33;8.82;;;6.60;99.90;;;;;;2602790;54;20037;31
2023/12/16 22:03:46;;;;;;;16.23;7.22;;;6.60;99.90;;;;;;2602772;54;20121;31
2023/12/16 22:06:19;;;;;;;17.00;7.55;;;6.60;99.90;;;;;;2602956;54;21875;31
2023/12/16 22:08:54;;;;;;;14.52;7.20;;;6.60;99.90;;;;;;2602964;54;20817;31
2023/12/16 22:11:30;;;;;;;14.60;6.55;;;6.60;99.90;;;;;;2602816;54;20830;31
2023/12/16 22:14:06;;;;;;;12.00;6.00;;;6.50;99.90;;;;;;2602931;54;20034;31
2023/12/16 22:16:43;;;;;;;12.75;5.80;;;6.60;99.90;;;;;;2603030;54;21019;31
2023/12/16 22:19:22;;;;;;;13.60;5.20;;;6.60;99.90;;;;;;2602831;54;20072;31
2023/12/16 22:21:59;;;;;;;9.05;4.97;;;6.60;99.90;;;;;;2602770;54;20030;31
2023/12/16 22:24:36;;;;;;;13.18;4.53;;;6.60;99.90;;;;;;2621223;46;20030;31
2023/12/16 22:27:13;;;;;;;9.25;4.45;;;6.60;99.90;;;;;;2621470;46;22374;31
2023/12/16 22:29:51;;;;;;;7.35;3.80;;;6.60;99.90;;;;;;2602952;54;20798;31
2023/12/16 22:32:28;;;;;;;7.90;3.80;;;6.60;99.90;;;;;;2602795;54;20037;31
2023/12/16 22:35:08;;;;;;;12.87;4.80;;;6.60;99.90;;;;;;2621340;46;21177;31